createdAt,value
2018-10-05T00:00:51.483Z,100171.61
2018-10-05T00:01:54.066Z,100171.44
2018-10-05T00:02:56.614Z,100170.62
2018-10-05T00:03:59.162Z,100173.63
2018-10-05T00:05:01.729Z,100166.62
2018-10-05T00:06:04.330Z,100167.95
2018-10-05T00:07:06.898Z,100161.28
2018-10-05T00:08:09.446Z,100162.27
2018-10-05T00:09:12.617Z,100150.61
2018-10-05T00:10:15.234Z,100147.95
2018-10-05T00:11:17.822Z,100153.28
2018-10-05T00:12:20.436Z,100158.10
2018-10-05T00:13:22.962Z,100154.09
2018-10-05T00:14:25.498Z,100147.95
2018-10-05T00:15:28.067Z,100143.94
2018-10-05T00:16:30.634Z,100141.62
2018-10-05T00:17:33.218Z,100146.61
2018-10-05T00:18:35.788Z,100138.09
2018-10-05T00:19:38.354Z,100129.75
2018-10-05T00:20:40.902Z,100123.08
2018-10-05T00:21:43.482Z,100120.41
2018-10-05T00:22:46.058Z,100117.27
2018-10-05T00:23:48.610Z,100115.93
2018-10-05T00:24:51.146Z,100110.08
2018-10-05T00:25:53.707Z,100110.59
2018-10-05T00:26:56.266Z,100107.76
2018-10-05T00:27:58.834Z,100108.75
2018-10-05T00:29:01.390Z,100103.41
2018-10-05T00:30:03.982Z,100095.92
2018-10-05T00:31:06.554Z,100094.93
2018-10-05T00:32:09.116Z,100089.59
2018-10-05T00:33:11.706Z,100084.26
2018-10-05T00:34:14.254Z,100086.41
2018-10-05T00:35:16.826Z,100077.93
2018-10-05T00:36:19.398Z,100073.59
2018-10-05T00:37:21.966Z,100065.58
2018-10-05T00:38:24.534Z,100068.59
2018-10-05T00:39:27.113Z,100065.58
2018-10-05T00:40:29.699Z,100065.92
2018-10-05T00:41:32.306Z,100063.26
2018-10-05T00:42:34.926Z,100060.93
2018-10-05T00:43:37.489Z,100061.45
2018-10-05T00:44:40.061Z,100056.59
2018-10-05T00:45:42.612Z,100050.40
2018-10-05T00:46:45.186Z,100047.73
2018-10-05T00:47:47.751Z,100051.25
2018-10-05T00:48:50.367Z,100037.91
2018-10-05T00:49:52.891Z,100038.39
2018-10-05T00:50:55.454Z,100029.05
2018-10-05T00:51:58.026Z,100029.91
2018-10-05T00:53:00.688Z,100013.05
2018-10-05T00:54:03.251Z,100017.56
2018-10-05T00:55:06.122Z,100009.90
2018-10-05T00:56:08.694Z,100002.89
2018-10-05T00:57:11.238Z,100003.23
2018-10-05T00:58:13.806Z,99995.23
2018-10-05T00:59:16.386Z,99993.55
2018-10-05T01:00:18.969Z,99998.23
2018-10-05T01:01:21.889Z,99989.55
2018-10-05T01:02:24.467Z,99997.89
2018-10-05T01:03:27.042Z,99990.38
2018-10-05T01:04:29.618Z,99988.55
2018-10-05T01:05:32.214Z,99989.04
2018-10-05T01:06:34.791Z,99984.56
2018-10-05T01:07:37.354Z,99988.22
2018-10-05T01:08:39.986Z,99989.55
2018-10-05T01:09:42.550Z,99986.74
2018-10-05T01:10:45.137Z,99985.55
2018-10-05T01:11:47.748Z,99981.55
2018-10-05T01:12:50.326Z,99984.22
2018-10-05T01:13:52.895Z,99980.22
2018-10-05T01:14:55.450Z,99980.22
2018-10-05T01:15:58.058Z,99977.55
2018-10-05T01:17:00.654Z,99970.36
2018-10-05T01:18:03.258Z,99970.87
2018-10-05T01:19:05.999Z,99973.89
2018-10-05T01:20:08.590Z,99974.37
2018-10-05T01:21:11.168Z,99969.55
2018-10-05T01:22:13.719Z,99978.37
2018-10-05T01:23:16.286Z,99974.37
2018-10-05T01:24:18.834Z,99966.88
2018-10-05T01:25:21.483Z,99957.03
2018-10-05T01:26:24.125Z,99961.88
2018-10-05T01:27:26.682Z,99959.69
2018-10-05T01:28:29.230Z,99956.41
2018-10-05T01:29:31.806Z,99952.41
2018-10-05T01:30:34.358Z,99947.06
2018-10-05T01:31:36.914Z,99942.21
2018-10-05T01:32:41.211Z,99941.22
2018-10-05T01:33:43.783Z,99938.89
2018-10-05T01:34:46.406Z,99941.56
2018-10-05T01:35:48.969Z,99941.56
2018-10-05T01:36:51.550Z,99944.08
2018-10-05T01:37:54.138Z,99936.73
2018-10-05T01:38:56.842Z,99940.22
2018-10-05T01:39:59.266Z,99933.07
2018-10-05T01:41:01.849Z,99932.56
2018-10-05T01:42:04.416Z,99930.23
2018-10-05T01:43:06.962Z,99927.73
2018-10-05T01:44:09.520Z,99920.55
2018-10-05T01:45:12.095Z,99925.89
2018-10-05T01:46:14.654Z,99927.56
2018-10-05T01:47:17.210Z,99919.22
2018-10-05T01:48:19.777Z,99916.55
2018-10-05T01:49:22.354Z,99908.55
2018-10-05T01:50:24.922Z,99896.06
2018-10-05T01:51:31.643Z,99896.55
2018-10-05T01:52:34.207Z,99900.40
2018-10-05T01:53:36.771Z,99893.39
2018-10-05T01:54:39.330Z,99896.40
2018-10-05T01:55:41.908Z,99892.54
2018-10-05T01:56:44.482Z,99894.21
2018-10-05T01:57:47.030Z,99888.39
2018-10-05T01:58:49.602Z,99880.05
2018-10-05T01:59:52.170Z,99885.22
2018-10-05T02:00:54.736Z,99873.38
2018-10-05T02:01:57.296Z,99872.53
2018-10-05T02:02:59.887Z,99870.72
2018-10-05T02:04:02.442Z,99870.72
2018-10-05T02:05:05.107Z,99865.38
2018-10-05T02:06:07.682Z,99862.71
2018-10-05T02:07:10.233Z,99860.86
2018-10-05T02:08:12.790Z,99856.86
2018-10-05T02:09:15.378Z,99851.53
2018-10-05T02:10:17.941Z,99859.19
2018-10-05T02:11:20.506Z,99857.72
2018-10-05T02:12:23.098Z,99856.86
2018-10-05T02:13:25.690Z,99859.19
2018-10-05T02:14:28.258Z,99855.70
2018-10-05T02:15:30.811Z,99864.86
2018-10-05T02:16:33.382Z,99865.38
2018-10-05T02:17:35.941Z,99861.38
2018-10-05T02:18:38.523Z,99865.04
2018-10-05T02:19:41.090Z,99869.38
2018-10-05T02:20:43.654Z,99866.20
2018-10-05T02:21:46.223Z,99864.53
2018-10-05T02:22:48.816Z,99864.05
2018-10-05T02:23:51.372Z,99864.19
2018-10-05T02:26:08.951Z,99865.04
2018-10-05T02:27:11.531Z,99871.71
2018-10-05T02:28:14.147Z,99877.86
2018-10-05T02:29:16.724Z,99875.71
2018-10-05T02:30:19.306Z,99873.86
2018-10-05T02:31:21.886Z,99876.53
2018-10-05T02:32:24.485Z,99875.71
2018-10-05T02:33:27.045Z,99878.20
2018-10-05T02:34:29.849Z,99876.53
2018-10-05T02:35:32.420Z,99879.54
2018-10-05T02:36:35.010Z,99880.53
2018-10-05T02:37:37.570Z,99878.72
2018-10-05T02:38:40.134Z,99874.72
2018-10-05T02:39:42.719Z,99868.53
2018-10-05T02:40:45.328Z,99864.53
2018-10-05T02:41:47.985Z,99866.20
2018-10-05T02:42:50.479Z,99862.71
2018-10-05T02:43:53.055Z,99859.19
2018-10-05T02:44:55.638Z,99851.19
2018-10-05T02:45:58.205Z,99847.19
2018-10-05T02:47:00.798Z,99845.85
2018-10-05T02:48:03.382Z,99840.52
2018-10-05T02:49:06.222Z,99836.52
2018-10-05T02:50:08.810Z,99830.70
2018-10-05T02:51:11.370Z,99836.85
2018-10-05T02:52:13.934Z,99835.03
2018-10-05T02:53:16.561Z,99834.19
2018-10-05T02:54:19.110Z,99829.36
2018-10-05T02:55:21.708Z,99829.70
2018-10-05T02:56:24.384Z,99825.70
2018-10-05T02:57:26.957Z,99826.52
2018-10-05T02:58:29.510Z,99819.84
2018-10-05T02:59:32.074Z,99816.02
2018-10-05T03:00:45.899Z,99816.84
2018-10-05T03:01:59.646Z,99822.52
2018-10-05T03:03:02.230Z,99810.52
2018-10-05T03:04:04.806Z,99809.17
2018-10-05T03:05:07.369Z,99807.02
2018-10-05T03:06:09.961Z,99807.02
2018-10-05T03:07:12.518Z,99807.50
2018-10-05T03:08:15.074Z,99810.17
2018-10-05T03:09:17.634Z,99803.16
2018-10-05T03:10:20.239Z,99800.50
2018-10-05T03:11:22.799Z,99806.69
2018-10-05T03:12:25.390Z,99805.35
2018-10-05T03:13:27.950Z,99805.35
2018-10-05T03:14:30.539Z,99800.50
2018-10-05T03:15:33.102Z,99807.17
2018-10-05T03:16:35.655Z,99807.17
2018-10-05T03:17:38.230Z,99800.16
2018-10-05T03:18:40.786Z,99801.50
2018-10-05T03:19:43.424Z,99803.16
2018-10-05T03:20:45.998Z,99808.50
2018-10-05T03:21:48.574Z,99809.36
2018-10-05T03:22:51.186Z,99805.84
2018-10-05T03:23:53.734Z,99804.84
2018-10-05T03:24:56.302Z,99804.50
2018-10-05T03:25:58.946Z,99804.84
2018-10-05T03:27:01.531Z,99799.16
2018-10-05T03:28:04.108Z,99802.17
2018-10-05T03:29:06.790Z,99793.83
2018-10-05T03:30:09.353Z,99797.83
2018-10-05T03:31:11.930Z,99803.50
2018-10-05T03:32:14.487Z,99796.83
2018-10-05T03:33:17.102Z,99796.50
2018-10-05T03:34:19.665Z,99798.17
2018-10-05T03:35:22.274Z,99791.16
2018-10-05T03:36:25.046Z,99800.02
2018-10-05T03:37:27.635Z,99800.50
2018-10-05T03:38:30.188Z,99790.68
2018-10-05T03:39:32.758Z,99786.16
2018-10-05T03:40:35.307Z,99788.02
2018-10-05T03:41:37.868Z,99791.50
2018-10-05T03:42:40.434Z,99790.16
2018-10-05T03:43:43.026Z,99788.83
2018-10-05T03:44:45.609Z,99791.02
2018-10-05T03:45:48.162Z,99786.16
2018-10-05T03:46:50.750Z,99786.16
2018-10-05T03:47:53.398Z,99788.83
2018-10-05T03:48:55.962Z,99788.83
2018-10-05T03:49:58.518Z,99790.16
2018-10-05T03:51:01.063Z,99793.51
2018-10-05T03:52:03.691Z,99789.50
2018-10-05T03:53:06.480Z,99793.17
2018-10-05T03:54:09.043Z,99791.35
2018-10-05T03:55:11.603Z,99798.50
2018-10-05T03:56:14.174Z,99794.50
2018-10-05T03:57:16.771Z,99795.84
2018-10-05T03:58:19.369Z,99802.51
2018-10-05T03:59:21.932Z,99802.51
2018-10-05T04:00:24.506Z,99794.84
2018-10-05T04:01:27.074Z,99795.36
2018-10-05T04:02:29.882Z,99797.84
2018-10-05T04:03:32.447Z,99794.50
2018-10-05T04:04:35.028Z,99797.03
2018-10-05T04:05:37.610Z,99803.18
2018-10-05T04:06:40.171Z,99801.51
2018-10-05T04:07:42.723Z,99802.84
2018-10-05T04:08:45.294Z,99796.51
2018-10-05T04:09:47.878Z,99791.69
2018-10-05T04:10:50.440Z,99798.70
2018-10-05T04:11:53.006Z,99795.17
2018-10-05T04:12:55.582Z,99793.84
2018-10-05T04:13:58.166Z,99792.52
2018-10-05T04:15:00.722Z,99789.36
2018-10-05T04:16:03.290Z,99796.36
2018-10-05T04:17:06.069Z,99792.03
2018-10-05T04:18:08.646Z,99795.69
2018-10-05T04:19:11.211Z,99799.18
2018-10-05T04:20:13.814Z,99793.84
2018-10-05T04:21:16.383Z,99794.18
2018-10-05T04:22:22.790Z,99792.84
2018-10-05T04:23:25.375Z,99793.86
2018-10-05T04:24:27.969Z,99769.47
2018-10-05T04:25:30.549Z,99789.53
2018-10-05T04:26:33.110Z,99793.55
2018-10-05T04:27:35.784Z,99797.59
2018-10-05T04:28:38.399Z,99785.59
2018-10-05T04:29:40.962Z,99786.61
2018-10-05T04:30:43.614Z,99782.95
2018-10-05T04:31:46.190Z,99785.96
2018-10-05T04:32:48.766Z,99785.48
2018-10-05T04:33:51.338Z,99787.98
2018-10-05T04:34:53.915Z,99793.17
2018-10-05T04:35:56.511Z,99797.67
2018-10-05T04:36:59.086Z,99792.19
2018-10-05T04:38:01.953Z,99791.19
2018-10-05T04:39:06.002Z,99787.19
2018-10-05T04:40:08.630Z,99794.87
2018-10-05T04:41:11.228Z,99799.88
2018-10-05T04:42:13.806Z,99800.55
2018-10-05T04:43:16.372Z,99803.55
2018-10-05T04:44:18.962Z,99795.39
2018-10-05T04:45:21.535Z,99805.41
2018-10-05T04:46:24.107Z,99805.74
2018-10-05T04:47:26.710Z,99806.56
2018-10-05T04:48:29.290Z,99807.08
2018-10-05T04:49:31.927Z,99806.89
2018-10-05T04:50:34.484Z,99802.89
2018-10-05T04:51:37.075Z,99807.41
2018-10-05T04:52:39.658Z,99812.76
2018-10-05T04:53:42.206Z,99814.09
2018-10-05T04:54:44.758Z,99813.76
2018-10-05T04:55:47.325Z,99811.91
2018-10-05T04:56:49.984Z,99811.57
2018-10-05T04:57:52.483Z,99817.77
2018-10-05T04:58:55.045Z,99814.42
2018-10-05T04:59:57.602Z,99823.77
2018-10-05T05:01:00.170Z,99819.43
2018-10-05T05:02:02.752Z,99822.44
2018-10-05T05:03:05.730Z,99828.44
2018-10-05T05:04:08.299Z,99828.11
2018-10-05T05:05:10.870Z,99832.59
2018-10-05T05:06:13.458Z,99829.11
2018-10-05T05:07:16.014Z,99831.27
2018-10-05T05:08:18.813Z,99833.11
2018-10-05T05:09:21.627Z,99831.45
2018-10-05T05:10:24.188Z,99827.59
2018-10-05T05:11:26.742Z,99836.94
2018-10-05T05:12:29.318Z,99837.94
2018-10-05T05:13:31.901Z,99842.80
2018-10-05T05:14:34.450Z,99833.26
2018-10-05T05:15:37.007Z,99833.78
2018-10-05T05:16:39.570Z,99839.12
2018-10-05T05:17:42.174Z,99830.44
2018-10-05T05:18:44.718Z,99837.59
2018-10-05T05:19:47.344Z,99839.45
2018-10-05T05:20:49.858Z,99839.45
2018-10-05T05:21:52.450Z,99841.27
2018-10-05T05:22:55.018Z,99838.25
2018-10-05T05:23:57.574Z,99844.59
2018-10-05T05:25:00.138Z,99845.59
2018-10-05T05:26:02.731Z,99848.78
2018-10-05T05:27:05.314Z,99851.45
2018-10-05T05:28:07.899Z,99848.26
2018-10-05T05:29:10.470Z,99851.60
2018-10-05T05:30:13.070Z,99843.73
2018-10-05T05:31:15.614Z,99850.41
2018-10-05T05:32:18.202Z,99850.08
2018-10-05T05:33:20.793Z,99844.73
2018-10-05T05:34:23.346Z,99848.92
2018-10-05T05:35:25.907Z,99852.08
2018-10-05T05:36:28.486Z,99852.08
2018-10-05T05:37:31.055Z,99854.41
2018-10-05T05:38:33.642Z,99854.08
2018-10-05T05:39:36.198Z,99851.41
2018-10-05T05:40:38.987Z,99851.92
2018-10-05T05:41:41.554Z,99856.41
2018-10-05T05:42:44.151Z,99850.73
2018-10-05T05:43:46.722Z,99852.58
2018-10-05T05:44:49.281Z,99857.07
2018-10-05T05:45:51.858Z,99858.06
2018-10-05T05:46:54.502Z,99863.41
2018-10-05T05:47:57.022Z,99865.59
2018-10-05T05:48:59.606Z,99867.08
2018-10-05T05:50:02.211Z,99874.60
2018-10-05T05:51:04.790Z,99868.59
2018-10-05T05:52:07.850Z,99862.73
2018-10-05T05:53:10.406Z,99867.73
2018-10-05T05:54:12.984Z,99867.73
2018-10-05T05:55:15.549Z,99870.07
2018-10-05T05:56:18.098Z,99870.59
2018-10-05T05:57:20.666Z,99875.41
2018-10-05T05:58:23.318Z,99868.40
2018-10-05T05:59:25.943Z,99872.06
2018-10-05T06:00:28.509Z,99878.73
2018-10-05T06:01:31.070Z,99877.74
2018-10-05T06:02:33.638Z,99874.06
2018-10-05T06:03:37.573Z,99880.25
2018-10-05T06:04:40.154Z,99875.73
2018-10-05T06:05:42.718Z,99878.41
2018-10-05T06:06:45.301Z,99882.07
2018-10-05T06:07:47.887Z,99887.41
2018-10-05T06:08:50.450Z,99888.07
2018-10-05T06:09:53.346Z,99886.73
2018-10-05T06:10:56.103Z,99888.55
2018-10-05T06:11:58.716Z,99888.22
2018-10-05T06:13:01.307Z,99887.73
2018-10-05T06:14:03.934Z,99886.87
2018-10-05T06:15:06.698Z,99889.06
2018-10-05T06:16:09.297Z,99888.73
2018-10-05T06:17:11.842Z,99894.07
2018-10-05T06:18:14.423Z,99891.40
2018-10-05T06:19:16.994Z,99896.06
2018-10-05T06:20:19.651Z,99894.21
2018-10-05T06:21:22.277Z,99906.23
2018-10-05T06:22:24.926Z,99906.23
2018-10-05T06:23:27.366Z,99906.74
2018-10-05T06:24:29.934Z,99911.56
2018-10-05T06:25:32.610Z,99910.75
2018-10-05T06:26:35.182Z,99913.41
2018-10-05T06:27:37.730Z,99910.75
2018-10-05T06:28:40.294Z,99919.23
2018-10-05T06:29:42.850Z,99912.08
2018-10-05T06:30:45.565Z,99913.08
2018-10-05T06:31:48.066Z,99914.41
2018-10-05T06:32:50.635Z,99915.23
2018-10-05T06:33:53.190Z,99919.75
2018-10-05T06:34:55.766Z,99914.41
2018-10-05T06:35:58.362Z,99930.42
2018-10-05T06:37:00.922Z,99930.77
2018-10-05T06:38:03.509Z,99934.91
2018-10-05T06:39:07.422Z,99924.23
2018-10-05T06:40:09.966Z,99931.77
2018-10-05T06:41:12.530Z,99929.58
2018-10-05T06:42:15.380Z,99934.43
2018-10-05T06:43:17.902Z,99938.09
2018-10-05T06:44:20.474Z,99941.11
2018-10-05T06:45:23.038Z,99948.59
2018-10-05T06:46:25.606Z,99953.12
2018-10-05T06:47:28.194Z,99955.45
2018-10-05T06:48:30.762Z,99960.79
2018-10-05T06:49:33.326Z,99950.93
2018-10-05T06:50:35.914Z,99954.94
2018-10-05T06:51:38.472Z,99964.79
2018-10-05T06:52:41.058Z,99963.45
2018-10-05T06:53:43.631Z,99961.27
2018-10-05T06:54:46.258Z,99968.45
2018-10-05T06:55:48.822Z,99966.95
2018-10-05T06:56:51.389Z,99964.79
2018-10-05T06:57:53.958Z,99968.45
2018-10-05T06:58:56.542Z,99964.45
2018-10-05T06:59:59.107Z,99958.78
2018-10-05T07:01:01.674Z,99965.78
2018-10-05T07:02:04.230Z,99972.45
2018-10-05T07:03:06.826Z,99960.09
2018-10-05T07:04:09.392Z,99969.27
2018-10-05T07:05:11.959Z,99972.45
2018-10-05T07:06:14.534Z,99976.46
2018-10-05T07:07:17.122Z,99975.12
2018-10-05T07:08:19.683Z,99969.27
2018-10-05T07:09:22.250Z,99971.95
2018-10-05T07:10:24.814Z,99979.95
2018-10-05T07:11:27.428Z,99985.29
2018-10-05T07:12:29.982Z,99990.15
2018-10-05T07:13:32.807Z,99988.81
2018-10-05T07:14:35.358Z,99997.64
2018-10-05T07:15:37.984Z,99998.98
2018-10-05T07:16:40.568Z,99999.83
2018-10-05T07:17:43.154Z,100000.66
2018-10-05T07:18:45.712Z,100000.66
2018-10-05T07:19:48.270Z,100001.17
2018-10-05T07:20:50.829Z,99992.48
2018-10-05T07:21:53.387Z,99990.48
2018-10-05T07:22:55.970Z,99997.50
2018-10-05T07:23:58.614Z,99996.65
2018-10-05T07:25:01.166Z,99998.98
2018-10-05T07:26:03.866Z,100004.17
2018-10-05T07:27:06.482Z,100008.17
2018-10-05T07:28:09.115Z,100010.51
2018-10-05T07:29:11.703Z,100010.84
2018-10-05T07:30:14.352Z,100008.17
2018-10-05T07:31:16.890Z,100014.52
2018-10-05T07:32:19.470Z,100018.86
2018-10-05T07:33:22.034Z,100017.19
2018-10-05T07:34:24.603Z,100011.84
2018-10-05T07:35:27.174Z,100022.52
2018-10-05T07:36:29.818Z,100022.52
2018-10-05T07:37:32.379Z,100025.19
2018-10-05T07:38:34.970Z,100027.86
2018-10-05T07:39:37.538Z,100019.00
2018-10-05T07:40:40.082Z,100016.19
2018-10-05T07:41:42.654Z,100019.85
2018-10-05T07:42:45.218Z,100017.19
2018-10-05T07:43:47.806Z,100017.66
2018-10-05T07:44:50.358Z,100024.34
2018-10-05T07:45:52.926Z,100021.67
2018-10-05T07:46:55.561Z,100024.34
2018-10-05T07:47:58.139Z,100020.84
2018-10-05T07:49:00.723Z,100024.00
2018-10-05T07:50:03.394Z,100025.19
2018-10-05T07:51:06.067Z,100025.84
2018-10-05T07:52:08.615Z,100028.00
2018-10-05T07:53:11.187Z,100031.52
2018-10-05T07:54:13.751Z,100029.67
2018-10-05T07:55:16.331Z,100028.86
2018-10-05T07:56:18.998Z,100034.19
2018-10-05T07:57:21.625Z,100032.86
2018-10-05T07:58:24.152Z,100035.87
2018-10-05T07:59:26.730Z,100038.02
2018-10-05T08:00:29.287Z,100046.55
2018-10-05T08:01:31.854Z,100048.36
2018-10-05T08:02:34.426Z,100052.23
2018-10-05T08:03:36.987Z,100051.89
2018-10-05T08:04:39.542Z,100058.05
2018-10-05T08:05:42.125Z,100056.23
2018-10-05T08:06:44.686Z,100062.56
2018-10-05T08:07:47.257Z,100064.23
2018-10-05T08:08:49.854Z,100064.23
2018-10-05T08:09:52.410Z,100065.23
2018-10-05T08:10:55.051Z,100062.91
2018-10-05T08:11:57.606Z,100059.38
2018-10-05T08:13:00.175Z,100061.56
2018-10-05T08:14:02.747Z,100069.58
2018-10-05T08:15:06.190Z,100065.72
2018-10-05T08:16:08.762Z,100064.37
2018-10-05T08:17:11.338Z,100072.39
2018-10-05T08:18:13.947Z,100064.89
2018-10-05T08:19:16.523Z,100068.04
2018-10-05T08:20:19.087Z,100070.23
2018-10-05T08:21:21.691Z,100072.39
2018-10-05T08:22:24.238Z,100079.06
2018-10-05T08:23:27.049Z,100066.23
2018-10-05T08:24:29.639Z,100076.91
2018-10-05T08:25:32.199Z,100073.38
2018-10-05T08:26:34.791Z,100075.23
2018-10-05T08:27:37.362Z,100078.89
2018-10-05T08:28:39.914Z,100077.39
2018-10-05T08:29:42.462Z,100077.22
2018-10-05T08:30:45.028Z,100072.22
2018-10-05T08:31:47.574Z,100082.38
2018-10-05T08:32:50.139Z,100080.56
2018-10-05T08:33:52.766Z,100077.56
2018-10-05T08:34:55.302Z,100077.56
2018-10-05T08:35:57.850Z,100078.38
2018-10-05T08:37:00.430Z,100081.05
2018-10-05T08:38:03.003Z,100080.56
2018-10-05T08:39:08.174Z,100076.22
2018-10-05T08:40:11.234Z,100088.91
2018-10-05T08:41:13.731Z,100093.06
2018-10-05T08:42:16.289Z,100096.07
2018-10-05T08:43:18.854Z,100095.25
2018-10-05T08:44:21.407Z,100100.25
2018-10-05T08:45:23.969Z,100102.92
2018-10-05T08:46:26.751Z,100109.93
2018-10-05T08:47:29.330Z,100111.27
2018-10-05T08:48:31.954Z,100100.25
2018-10-05T08:49:34.506Z,100102.58
2018-10-05T08:50:37.050Z,100104.73
2018-10-05T08:51:39.661Z,100102.92
2018-10-05T08:52:42.214Z,100104.73
2018-10-05T08:53:44.778Z,100104.73
2018-10-05T08:54:47.331Z,100106.06
2018-10-05T08:55:49.890Z,100094.56
2018-10-05T08:56:52.462Z,100105.24
2018-10-05T08:57:55.046Z,100106.58
2018-10-05T08:58:57.616Z,100100.91
2018-10-05T09:00:00.254Z,100111.92
2018-10-05T09:01:02.810Z,100105.89
2018-10-05T09:02:05.404Z,100108.05
2018-10-05T09:03:07.981Z,100104.91
2018-10-05T09:04:10.542Z,100106.23
2018-10-05T09:05:13.394Z,100111.06
2018-10-05T09:06:15.946Z,100102.23
2018-10-05T09:07:18.530Z,100111.58
2018-10-05T09:08:21.214Z,100102.23
2018-10-05T09:09:23.786Z,100116.91
2018-10-05T09:10:26.355Z,100109.39
2018-10-05T09:11:29.371Z,100110.58
2018-10-05T09:12:31.954Z,100109.90
2018-10-05T09:13:34.518Z,100107.23
2018-10-05T09:14:37.078Z,100109.73
2018-10-05T09:15:39.646Z,100113.91
2018-10-05T09:16:42.214Z,100108.91
2018-10-05T09:17:44.819Z,100109.39
2018-10-05T09:18:47.373Z,100110.24
2018-10-05T09:19:49.958Z,100110.58
2018-10-05T09:20:52.510Z,100116.58
2018-10-05T09:21:55.078Z,100118.25
2018-10-05T09:22:57.638Z,100120.06
2018-10-05T09:24:00.201Z,100113.91
2018-10-05T09:25:02.802Z,100120.06
2018-10-05T09:26:05.382Z,100119.24
2018-10-05T09:27:07.966Z,100124.07
2018-10-05T09:28:10.510Z,100116.58
2018-10-05T09:29:13.083Z,100122.91
2018-10-05T09:30:15.674Z,100125.91
2018-10-05T09:31:18.238Z,100126.91
2018-10-05T09:32:20.882Z,100125.58
2018-10-05T09:33:24.619Z,100113.05
2018-10-05T09:34:27.227Z,100124.58
2018-10-05T09:35:29.798Z,100117.91
2018-10-05T09:36:32.342Z,100124.58
2018-10-05T09:37:34.997Z,100120.92
2018-10-05T09:38:37.535Z,100097.42
2018-10-05T09:39:40.100Z,100116.06
2018-10-05T09:40:42.657Z,100123.59
2018-10-05T09:41:45.294Z,100110.24
2018-10-05T09:42:47.862Z,100113.91
2018-10-05T09:43:50.418Z,100122.73
2018-10-05T09:44:52.996Z,100122.73
2018-10-05T09:45:55.597Z,100120.92
2018-10-05T09:46:58.162Z,100128.92
2018-10-05T09:48:00.735Z,100118.39
2018-10-05T09:49:03.310Z,100121.26
2018-10-05T09:50:05.976Z,100123.28
2018-10-05T09:51:08.650Z,100120.27
2018-10-05T09:52:11.234Z,100122.42
2018-10-05T09:53:13.810Z,100120.27
2018-10-05T09:54:16.377Z,100117.42
2018-10-05T09:55:18.938Z,100122.77
2018-10-05T09:56:21.500Z,100117.94
2018-10-05T09:57:24.116Z,100122.42
2018-10-05T09:58:26.694Z,100124.95
2018-10-05T09:59:29.262Z,100120.95
2018-10-05T10:00:37.530Z,100126.28
2018-10-05T10:01:45.719Z,100126.28
2018-10-05T10:02:53.758Z,100126.62
2018-10-05T10:03:56.310Z,100123.11
2018-10-05T10:04:58.870Z,100123.96
2018-10-05T10:06:01.882Z,100129.30
2018-10-05T10:07:04.442Z,100126.62
2018-10-05T10:08:07.189Z,100133.64
2018-10-05T10:09:09.853Z,100131.80
2018-10-05T10:10:12.426Z,100138.13
2018-10-05T10:11:14.986Z,100134.98
2018-10-05T10:12:17.546Z,100142.98
2018-10-05T10:13:20.131Z,100132.79
2018-10-05T10:14:22.734Z,100135.45
2018-10-05T10:15:25.340Z,100135.45
2018-10-05T10:16:27.894Z,100137.65
2018-10-05T10:17:30.458Z,100132.31
2018-10-05T10:18:33.028Z,100128.78
2018-10-05T10:19:35.751Z,100129.98
2018-10-05T10:20:38.313Z,100128.30
2018-10-05T10:21:40.885Z,100124.64
2018-10-05T10:22:43.517Z,100125.47
2018-10-05T10:23:46.038Z,100123.65
2018-10-05T10:24:48.598Z,100123.65
2018-10-05T10:25:51.189Z,100120.47
2018-10-05T10:26:53.758Z,100123.13
2018-10-05T10:27:56.434Z,100124.33
2018-10-05T10:28:59.043Z,100119.98
2018-10-05T10:30:01.547Z,100118.14
2018-10-05T10:31:04.126Z,100127.34
2018-10-05T10:32:06.724Z,100124.81
2018-10-05T10:33:09.289Z,100118.14
2018-10-05T10:34:11.840Z,100122.14
2018-10-05T10:35:14.402Z,100122.14
2018-10-05T10:36:17.266Z,100120.33
2018-10-05T10:37:19.834Z,100124.33
2018-10-05T10:38:22.394Z,100125.66
2018-10-05T10:39:24.961Z,100122.66
2018-10-05T10:40:27.550Z,100123.85
2018-10-05T10:41:30.105Z,100121.66
2018-10-05T10:42:32.689Z,100118.98
2018-10-05T10:43:35.246Z,100118.14
2018-10-05T10:44:37.798Z,100125.66
2018-10-05T10:45:40.367Z,100126.14
2018-10-05T10:46:42.958Z,100125.66
2018-10-05T10:47:45.538Z,100127.00
2018-10-05T10:48:48.200Z,100125.66
2018-10-05T10:49:51.043Z,100131.34
2018-10-05T10:50:53.610Z,100130.52
2018-10-05T10:51:56.162Z,100132.20
2018-10-05T10:52:58.779Z,100130.36
2018-10-05T10:54:01.534Z,100137.03
2018-10-05T10:55:04.206Z,100136.69
2018-10-05T10:56:06.861Z,100131.34
2018-10-05T10:57:09.380Z,100141.03
2018-10-05T10:58:11.952Z,100138.36
2018-10-05T10:59:14.503Z,100143.22
2018-10-05T11:00:17.073Z,100141.03
2018-10-05T11:01:19.680Z,100146.72
2018-10-05T11:02:22.267Z,100138.70
2018-10-05T11:03:24.830Z,100138.70
2018-10-05T11:04:27.446Z,100140.38
2018-10-05T11:05:29.974Z,100141.72
2018-10-05T11:06:32.562Z,100143.05
2018-10-05T11:07:35.174Z,100139.73
2018-10-05T11:08:37.798Z,100148.59
2018-10-05T11:09:40.557Z,100150.92
2018-10-05T11:10:43.123Z,100149.07
2018-10-05T11:11:45.691Z,100145.41
2018-10-05T11:12:48.246Z,100149.41
2018-10-05T11:13:50.826Z,100152.08
2018-10-05T11:14:53.370Z,100152.94
2018-10-05T11:15:55.931Z,100151.94
2018-10-05T11:16:58.532Z,100156.43
2018-10-05T11:18:01.074Z,100153.77
2018-10-05T11:19:03.674Z,100156.77
2018-10-05T11:20:06.347Z,100153.28
2018-10-05T11:21:08.910Z,100155.44
2018-10-05T11:22:11.475Z,100160.30
2018-10-05T11:23:14.046Z,100159.44
2018-10-05T11:24:16.618Z,100159.30
2018-10-05T11:25:25.921Z,100166.46
2018-10-05T11:26:28.482Z,100163.31
2018-10-05T11:27:31.045Z,100158.77
2018-10-05T11:28:33.632Z,100168.78
2018-10-05T11:29:36.263Z,100169.13
2018-10-05T11:30:38.810Z,100167.80
2018-10-05T11:31:41.398Z,100159.44
2018-10-05T11:32:43.962Z,100158.45
2018-10-05T11:33:46.530Z,100168.48
2018-10-05T11:34:49.090Z,100169.47
2018-10-05T11:35:51.649Z,100174.33
2018-10-05T11:36:54.214Z,100163.48
2018-10-05T11:37:56.774Z,100168.48
2018-10-05T11:38:59.335Z,100168.78
2018-10-05T11:40:01.903Z,100172.82
2018-10-05T11:41:04.996Z,100180.02
2018-10-05T11:42:07.554Z,100167.66
2018-10-05T11:43:10.150Z,100182.17
2018-10-05T11:44:12.742Z,100180.02
2018-10-05T11:45:15.314Z,100172.82
2018-10-05T11:46:17.983Z,100172.00
2018-10-05T11:47:20.514Z,100175.50
2018-10-05T11:48:23.078Z,100176.48
2018-10-05T11:49:25.659Z,100180.35
2018-10-05T11:50:28.208Z,100181.17
2018-10-05T11:51:30.789Z,100179.36
2018-10-05T11:52:33.424Z,100180.70
2018-10-05T11:53:35.984Z,100178.84
2018-10-05T11:54:38.578Z,100187.72
2018-10-05T11:55:41.150Z,100188.20
2018-10-05T11:56:43.712Z,100184.53
2018-10-05T11:57:46.270Z,100185.86
2018-10-05T11:58:48.834Z,100177.85
2018-10-05T11:59:51.432Z,100186.37
2018-10-05T12:00:53.998Z,100187.54
2018-10-05T12:01:56.563Z,100182.72
2018-10-05T12:02:59.127Z,100183.53
2018-10-05T12:04:01.692Z,100179.87
2018-10-05T12:05:04.396Z,100168.37
2018-10-05T12:06:06.974Z,100173.70
2018-10-05T12:07:09.626Z,100180.73